| Ora | Descriere | Temp | Se simte | Precipitatii | Umiditate | Vant |
|---|---|---|---|---|---|---|
| 00:00 | Senin | 12.6° | 12.4° | 0% | 67% | SSW 6.1 KM/H |
| 01:00 | Senin | 12.3° | 12.2° | 0% | 67% | SSW 5.8 KM/H |
| 02:00 | Senin | 11.9° | 11.7° | 0% | 68% | SSW 6.1 KM/H |
| 03:00 | Senin | 11.5° | 11.1° | 0% | 70% | SSW 6.1 KM/H |
| 04:00 | Senin | 11.1° | 10.8° | 0% | 72% | SW 5.8 KM/H |
| 05:00 | Senin | 10.7° | 10.4° | 0% | 73% | SSW 5.4 KM/H |
| 06:00 | Senin | 10.2° | 9.6° | 0% | 76% | S 6.5 KM/H |
| 07:00 | Senin | 11.3° | 10.7° | 0% | 76% | S 7.2 KM/H |
| 08:00 | Senin | 15° | 14.7° | 0% | 68% | S 9 KM/H |
| 09:00 | Senin | 17.6° | 17.6° | 0% | 60% | S 11.5 KM/H |
| 10:00 | Senin | 19.6° | 19.6° | 0% | 54% | SSE 14.4 KM/H |
| 11:00 | Senin | 21.2° | 21.2° | 0% | 48% | SSE 16.6 KM/H |
| 12:00 | Senin | 22.5° | 24.3° | 0% | 42% | SSE 18.4 KM/H |
| 13:00 | Senin | 23.3° | 24.4° | 0% | 38% | SSE 20.2 KM/H |
| 14:00 | Senin | 23.7° | 24.4° | 0% | 36% | SSE 21.2 KM/H |
| 15:00 | Senin | 23.9° | 24.5° | 0% | 36% | SSE 22 KM/H |
| 16:00 | Senin | 23.6° | 24.4° | 0% | 37% | SSE 23.8 KM/H |
| 17:00 | Patchy rain nearby | 23.2° | 24.4° | 86% | 40% | SSE 22 KM/H |
| 18:00 | Senin | 22.4° | 24.4° | 0% | 46% | SSE 18.4 KM/H |
| 19:00 | Senin | 20.4° | 20.4° | 0% | 53% | SSE 16.6 KM/H |
| 20:00 | Senin | 16.4° | 16.4° | 0% | 62% | SSE 15.5 KM/H |
| 21:00 | Senin | 15° | 14° | 0% | 62% | SSE 15.5 KM/H |
| 22:00 | Senin | 13.9° | 13.2° | 0% | 67% | S 10.8 KM/H |
| 23:00 | Senin | 13.2° | 12.1° | 0% | 70% | S 13 KM/H |